West Crossett, Arkansas
Current Conditions -  °F | °C
As of 8:35 PM on Sunday 23 Nov 2014 (Local Time) from KBQP Reporting Station
Clear Clear  
Wind Chill: 64°   Ceiling: Unl
Heat Index: 64°   Visibility: 10mi
Dew Point: 58°   Wind: 10mph
Humidity: 81%   Direction: 200°SSW
Pressure: 29.54"   Gusts: 17mph
Location:  33.1917°N, 91.9836°W
Report Text: KBQP 240235Z AUTO 20009G15KT 10SM CLR 18/14 A2954 RMK AO2 T01750142
Loading
Personal Weather Stations






























Interactive Weather Map New forecast layout! Learn more

10-Day Weather Forecast

Advertisements
Track Severe Weather on mobile